Time;durP1;ratioP1;P1;durP2;ratioP2;P2;SDS_P1;SDS_P2;PMS_P1;PMS_P2;Temp;Humidity;BMP_temperature;BMP_pressure;BME280_temperature;BME280_humidity;BME280_pressure;Samples;Min_cycle;Max_cycle;Signal;HPM_P1;HPM_P2
2021/06/20 05:00:31;;;;;;;2.80;0.90;;;;;;;24.06;65.75;94644.06;6110546;23;20022;31
2021/06/20 05:02:58;;;;;;;0.80;0.75;;;;;;;23.79;64.01;94651.44;4892599;29;20085;-72
2021/06/20 05:05:23;;;;;;;3.95;1.45;;;;;;;23.97;63.75;94653.59;4895202;29;20131;-74
2021/06/20 05:07:49;;;;;;;0.88;0.82;;;;;;;24.46;62.12;94652.13;4894570;29;20040;-75
2021/06/20 05:10:14;;;;;;;1.35;1.20;;;;;;;25.49;61.15;94655.22;4896336;29;20028;-75
2021/06/20 05:12:40;;;;;;;1.45;1.30;;;;;;;26.79;56.95;94652.06;4893676;29;20529;-76
2021/06/20 05:15:07;;;;;;;1.67;1.10;;;;;;;26.59;55.98;94657.53;4880505;29;20107;-77
2021/06/20 05:17:32;;;;;;;2.00;1.35;;;;;;;25.28;58.16;94674.88;4898194;29;20035;-76
2021/06/20 05:19:58;;;;;;;1.30;1.20;;;;;;;24.74;60.71;94664.03;4914729;29;20042;-77
2021/06/20 05:22:23;;;;;;;1.60;1.50;;;;;;;24.40;63.12;94670.91;4913523;29;20039;-76
2021/06/20 05:24:49;;;;;;;2.75;1.73;;;;;;;24.95;63.11;94668.28;4931441;29;20031;-77
2021/06/20 05:27:15;;;;;;;1.60;1.50;;;;;;;25.27;60.53;94667.19;4898653;29;20032;-77
2021/06/20 05:29:40;;;;;;;2.17;1.98;;;;;;;23.96;62.38;94663.38;4930114;29;20079;-77
2021/06/20 05:32:06;;;;;;;2.70;2.40;;;;;;;22.62;67.62;94672.91;4914184;29;20030;-77
2021/06/20 05:34:32;;;;;;;3.17;2.17;;;;;;;22.95;67.51;94668.19;4896762;29;20059;-77
2021/06/20 05:36:57;;;;;;;2.72;2.53;;;;;;;22.71;68.26;94668.75;4914407;29;20028;-78
2021/06/20 05:39:22;;;;;;;3.30;2.17;;;;;;;22.48;71.32;94670.66;4897068;29;20056;-78
2021/06/20 05:41:48;;;;;;;1.75;1.65;;;;;;;22.65;69.46;94669.75;4898116;29;20413;-79
2021/06/20 05:44:13;;;;;;;1.83;1.73;;;;;;;22.86;70.38;94663.63;4913438;29;20127;-78
2021/06/20 05:46:39;;;;;;;2.10;1.75;;;;;;;22.75;69.37;94667.22;4897619;29;20027;-78
2021/06/20 05:49:04;;;;;;;1.92;1.83;;;;;;;23.02;70.79;94662.66;4931450;29;20031;-80
2021/06/20 05:51:30;;;;;;;2.00;1.80;;;;;;;22.71;70.36;94660.84;4927982;29;20489;-78
2021/06/20 05:53:55;;;;;;;3.53;2.10;;;;;;;22.53;70.95;94660.16;4912646;29;20028;-79
2021/06/20 05:56:21;;;;;;;2.13;1.83;;;;;;;22.71;70.50;94661.66;4896560;29;20035;-78
2021/06/20 05:58:46;;;;;;;3.95;1.70;;;;;;;22.78;72.14;94656.94;4914137;29;20410;-79
2021/06/20 06:01:12;;;;;;;3.88;1.80;;;;;;;23.08;71.56;94646.59;4911226;29;20051;-78
2021/06/20 06:03:37;;;;;;;1.60;1.42;;;;;;;23.70;69.09;94640.53;4929235;29;20040;-78
2021/06/20 06:06:03;;;;;;;1.88;1.77;;;;;;;23.04;70.57;94642.06;4912705;29;20484;-78
2021/06/20 06:08:29;;;;;;;1.27;1.17;;;;;;;23.53;70.02;94645.25;4912257;29;20034;-75
2021/06/20 06:10:54;;;;;;;2.35;1.65;;;;;;;23.74;69.27;94640.81;4928884;29;20055;-77
2021/06/20 06:13:20;;;;;;;2.55;1.40;;;;;;;23.81;68.96;94641.38;4927494;29;20095;-77
2021/06/20 06:15:45;;;;;;;1.77;1.65;;;;;;;23.78;68.38;94640.06;4929155;29;20033;-76
2021/06/20 06:18:10;;;;;;;1.50;1.40;;;;;;;23.66;68.11;94643.97;4928576;29;20066;-78
2021/06/20 06:20:36;;;;;;;2.60;1.42;;;;;;;23.40;69.54;94637.78;4947830;29;20023;-77
2021/06/20 06:23:02;;;;;;;1.60;1.27;;;;;;;23.16;70.27;94634.72;4942369;28;20027;-78
2021/06/20 06:25:27;;;;;;;1.55;1.45;;;;;;;23.34;69.84;94639.56;4930419;29;20114;-77
2021/06/20 06:27:54;;;;;;;2.63;1.48;;;;;;;23.44;68.89;94631.72;4946605;28;20098;-77
2021/06/20 06:30:20;;;;;;;1.88;1.20;;;;;;;23.54;68.92;94629.09;4945842;29;20019;-79
2021/06/20 06:32:45;;;;;;;1.25;1.15;;;;;;;22.54;67.96;94630.06;4948436;29;20549;-78
2021/06/20 06:35:11;;;;;;;1.92;1.10;;;;;;;23.04;69.50;94637.56;4947014;28;20028;-79
2021/06/20 06:37:37;;;;;;;1.92;1.23;;;;;;;23.34;68.59;94633.50;4948854;29;20039;-77
2021/06/20 06:40:03;;;;;;;1.50;1.40;;;;;;;23.07;67.27;94633.63;4945404;29;20118;-80
2021/06/20 06:42:29;;;;;;;1.30;1.00;;;;;;;22.67;69.20;94643.94;4947894;29;20098;-79
2021/06/20 06:44:55;;;;;;;0.82;0.82;;;;;;;22.69;70.48;94636.53;4947063;28;20034;-76
2021/06/20 06:47:21;;;;;;;1.20;0.93;;;;;;;22.82;68.89;94631.63;4946471;29;20031;-79
2021/06/20 06:49:48;;;;;;;0.85;0.70;;;;;;;22.38;70.45;94627.56;4940117;28;20046;-76
2021/06/20 06:52:13;;;;;;;1.10;0.90;;;;;;;22.46;71.72;94633.19;4923281;28;20042;-77
2021/06/20 06:54:39;;;;;;;1.30;1.17;;;;;;;22.37;71.11;94628.59;4943112;28;20027;-78
2021/06/20 06:57:04;;;;;;;1.15;1.05;;;;;;;22.84;69.74;94618.16;4922347;29;20027;-76
2021/06/20 06:59:30;;;;;;;0.70;0.70;;;;;;;23.02;66.88;94620.38;4927362;29;20050;-75
2021/06/20 07:01:56;;;;;;;0.95;0.90;;;;;;;23.38;67.46;94622.13;4934212;28;20130;-78
2021/06/20 07:04:22;;;;;;;1.10;1.00;;;;;;;23.29;66.20;94613.13;4941163;28;20521;-76
2021/06/20 07:06:47;;;;;;;1.00;0.85;;;;;;;23.46;66.89;94619.03;4926261;29;20512;-76
2021/06/20 07:09:13;;;;;;;1.35;1.20;;;;;;;23.02;66.61;94609.81;4934062;29;20031;-74
2021/06/20 07:11:38;;;;;;;1.20;1.10;;;;;;;23.46;66.72;94616.41;4911989;29;20509;-75
2021/06/20 07:14:04;;;;;;;1.15;1.00;;;;;;;24.21;64.22;94617.66;4937486;28;20032;-77
2021/06/20 07:16:29;;;;;;;2.45;1.90;;;;;;;24.43;59.19;94620.88;4943481;29;20046;-76
2021/06/20 07:18:55;;;;;;;1.10;0.90;;;;;;;25.87;56.97;94626.41;4944107;29;20034;-74
2021/06/20 07:21:20;;;;;;;0.93;0.77;;;;;;;27.18;55.28;94617.44;4929244;29;20035;-76
2021/06/20 07:23:46;;;;;;;2.22;1.25;;;;;;;27.72;54.87;94623.22;4929384;29;20027;-75
2021/06/20 07:26:12;;;;;;;1.45;1.00;;;;;;;32.49;43.33;94626.88;4944287;29;20035;-74
2021/06/20 07:28:38;;;;;;;0.75;0.63;;;;;;;38.04;34.38;94623.50;4945422;29;20063;-75
2021/06/20 07:31:04;;;;;;;0.60;0.60;;;;;;;41.07;28.28;94613.63;4926555;29;20701;-74
2021/06/20 07:33:29;;;;;;;0.60;0.60;;;;;;;33.86;35.40;94626.53;4922285;29;20027;-78
2021/06/20 07:35:57;;;;;;;1.02;0.70;;;;;;;31.36;44.83;94626.88;4942746;28;20047;-79
2021/06/20 07:38:23;;;;;;;0.45;0.45;;;;;;;30.60;43.47;94628.78;4931351;29;20417;-77
2021/06/20 07:40:48;;;;;;;0.60;0.50;;;;;;;30.10;42.62;94620.00;4924779;29;20035;-79
2021/06/20 07:43:14;;;;;;;0.85;0.60;;;;;;;28.35;45.73;94614.94;4925962;29;20043;-79
2021/06/20 07:45:39;;;;;;;0.50;0.50;;;;;;;25.50;52.46;94619.66;4945216;29;20064;-80
2021/06/20 07:48:11;;;;;;;0.70;0.70;;;;;;;25.31;54.94;94610.66;4945894;28;20485;-69
2021/06/20 07:50:37;;;;;;;1.17;0.93;;;;;;;26.59;54.90;94615.81;4946007;29;20163;-75
2021/06/20 07:53:02;;;;;;;2.08;0.80;;;;;;;27.61;53.22;94608.44;4944328;29;20432;-76
2021/06/20 07:55:28;;;;;;;0.60;0.60;;;;;;;28.01;50.79;94604.47;4929879;29;20020;-76
2021/06/20 07:57:53;;;;;;;1.77;0.90;;;;;;;27.23;49.99;94607.53;4945717;28;20061;-79
2021/06/20 08:00:20;;;;;;;0.90;0.55;;;;;;;27.75;52.26;94608.53;4924773;29;20115;-78
2021/06/20 08:02:46;;;;;;;0.60;0.45;;;;;;;27.07;50.18;94608.75;4921949;29;20054;-74
2021/06/20 08:05:11;;;;;;;0.50;0.40;;;;;;;26.77;54.28;94602.94;4912091;29;20062;-77
2021/06/20 08:07:37;;;;;;;0.47;0.47;;;;;;;27.69;52.00;94607.81;4924451;29;20063;-77
2021/06/20 08:10:03;;;;;;;0.55;0.55;;;;;;;29.36;50.11;94607.91;4907392;29;20027;-78
2021/06/20 08:12:28;;;;;;;0.40;0.40;;;;;;;28.60;48.86;94611.06;4938640;29;20043;-80
2021/06/20 08:14:55;;;;;;;0.60;0.60;;;;;;;28.08;50.88;94610.25;4926495;29;20035;-76
2021/06/20 08:17:21;;;;;;;0.60;0.60;;;;;;;28.90;49.24;94612.47;4946276;28;20602;-76
2021/06/20 08:19:46;;;;;;;0.60;0.52;;;;;;;29.49;47.85;94611.66;4946374;29;20031;-77
2021/06/20 08:22:12;;;;;;;0.98;0.50;;;;;;;29.84;46.20;94612.84;4931160;29;20086;-78
2021/06/20 08:24:37;;;;;;;2.38;0.40;;;;;;;29.60;46.27;94613.84;4932115;29;20495;-77
2021/06/20 08:27:03;;;;;;;2.50;0.88;;;;;;;30.48;46.90;94609.81;4948573;29;20047;-78
2021/06/20 08:29:29;;;;;;;0.70;0.63;;;;;;;30.34;45.23;94611.72;4949571;29;20397;-78
2021/06/20 08:31:55;;;;;;;0.60;0.60;;;;;;;29.62;44.78;94616.19;4947335;29;20034;-75
2021/06/20 08:34:20;;;;;;;0.43;0.43;;;;;;;30.37;43.78;94627.16;4949143;29;20485;-73
2021/06/20 08:36:47;;;;;;;0.65;0.40;;;;;;;29.69;45.02;94627.28;4931926;29;20023;-75
2021/06/20 08:39:12;;;;;;;0.55;0.50;;;;;;;28.33;47.42;94625.06;4948558;29;20114;-76
2021/06/20 08:41:40;;;;;;;0.30;0.30;;;;;;;27.32;48.25;94626.34;4946814;29;20086;-75
2021/06/20 08:44:35;;;;;;;0.50;0.50;;;;;;;26.42;50.96;94630.59;4932364;28;20039;-79
2021/06/20 08:47:01;;;;;;;0.63;0.50;;;;;;;27.53;50.85;94619.72;4924824;29;20039;-76
2021/06/20 08:49:27;;;;;;;0.50;0.50;;;;;;;27.07;49.37;94619.41;4947487;29;20023;-77
2021/06/20 08:51:54;;;;;;;1.05;0.73;;;;;;;27.75;50.14;94612.00;4948710;29;20027;-74
2021/06/20 08:54:19;;;;;;;3.92;0.45;;;;;;;28.31;47.32;94613.91;4930917;29;20110;-75
2021/06/20 08:56:47;;;;;;;0.80;0.50;;;;;;;27.70;48.23;94612.06;4931396;29;20106;-80
2021/06/20 08:59:13;;;;;;;3.80;1.00;;;;;;;25.98;51.23;94606.66;4933190;29;20404;-82
2021/06/20 09:01:38;;;;;;;0.98;0.73;;;;;;;24.17;54.88;94608.66;4931231;28;20035;-79
2021/06/20 09:04:04;;;;;;;0.60;0.60;;;;;;;25.81;53.74;94608.91;4948922;29;20054;-76
2021/06/20 09:06:30;;;;;;;0.50;0.50;;;;;;;25.81;53.62;94600.94;4931305;29;20076;-78
2021/06/20 09:08:57;;;;;;;0.80;0.80;;;;;;;26.24;52.82;94602.81;4948485;29;20052;-80
2021/06/20 09:11:31;;;;;;;0.55;0.55;;;;;;;27.79;50.86;94601.56;4947086;29;20031;-77
2021/06/20 09:14:07;;;;;;;0.65;0.50;;;;;;;28.26;47.89;94596.13;4949551;28;20027;-74
2021/06/20 09:16:33;;;;;;;3.92;0.50;;;;;;;27.83;52.45;94597.25;4947702;29;20046;-77
2021/06/20 09:18:59;;;;;;;1.13;0.52;;;;;;;28.03;50.24;94601.53;4931415;29;20539;-79
2021/06/20 09:21:25;;;;;;;0.47;0.47;;;;;;;28.96;47.34;94595.28;4932688;29;20023;-78
2021/06/20 09:23:57;;;;;;;0.82;0.50;;;;;;;29.06;46.11;94587.88;4946740;29;20027;-80
2021/06/20 09:26:37;;;;;;;0.50;0.50;;;;;;;27.73;51.42;94592.88;4932303;29;20034;-75
2021/06/20 09:29:03;;;;;;;0.70;0.57;;;;;;;29.01;48.62;94589.84;4915492;29;20054;-77
2021/06/20 09:31:53;;;;;;;0.30;0.30;;;;;;;28.75;45.94;94590.28;4931210;29;20031;-75
2021/06/20 09:34:18;;;;;;;0.43;0.43;;;;;;;28.15;50.14;94588.56;4948578;28;20090;-75
2021/06/20 09:36:45;;;;;;;0.32;0.32;;;;;;;27.68;49.68;94570.81;4946073;29;20036;-75
2021/06/20 09:39:26;;;;;;;0.60;0.60;;;;;;;27.22;53.24;94582.00;4948203;29;20031;-80
2021/06/20 09:42:18;;;;;;;2.88;0.50;;;;;;;25.79;55.36;94587.94;4931622;29;20102;-81
2021/06/20 09:44:48;;;;;;;1.00;0.50;;;;;;;27.22;51.81;94586.53;4941638;28;20032;-80
2021/06/20 09:47:17;;;;;;;0.40;0.40;;;;;;;26.33;54.93;94584.44;4948167;28;20539;-77
2021/06/20 09:49:47;;;;;;;0.40;0.40;;;;;;;25.61;55.26;94586.72;4930386;29;20050;-79
2021/06/20 09:52:13;;;;;;;0.70;0.70;;;;;;;24.94;58.31;94584.53;4947539;29;20023;-76
2021/06/20 09:54:55;;;;;;;0.40;0.40;;;;;;;27.02;54.67;94587.53;4946142;29;20082;-75
2021/06/20 09:57:21;;;;;;;0.60;0.60;;;;;;;26.12;53.38;94578.44;4947086;29;20078;-73
2021/06/20 09:59:57;;;;;;;0.77;0.50;;;;;;;26.76;54.32;94572.88;4931131;29;20058;-79
2021/06/20 10:02:30;;;;;;;0.40;0.40;;;;;;;26.87;52.83;94576.28;4945953;28;20043;-76
2021/06/20 10:04:56;;;;;;;0.63;0.63;;;;;;;26.42;53.38;94566.81;4937739;28;20085;-75
2021/06/20 10:07:25;;;;;;;0.60;0.50;;;;;;;24.76;55.54;94563.88;4938169;28;20489;-77
2021/06/20 10:09:51;;;;;;;0.60;0.60;;;;;;;25.69;53.63;94556.94;4927689;28;20087;-75
2021/06/20 10:12:16;;;;;;;0.50;0.50;;;;;;;26.53;52.64;94550.50;4939119;28;20146;-77
2021/06/20 10:14:42;;;;;;;1.08;0.77;;;;;;;26.39;51.75;94554.91;4928595;29;20109;-79
2021/06/20 10:17:10;;;;;;;0.50;0.50;;;;;;;26.61;53.85;94557.88;4920451;28;20039;-75
2021/06/20 10:19:40;;;;;;;0.50;0.50;;;;;;;27.46;52.69;94558.06;4920004;29;20062;-77
2021/06/20 10:22:11;;;;;;;1.05;0.55;;;;;;;28.21;51.48;94552.78;4945233;29;20024;-79
2021/06/20 10:24:46;;;;;;;0.50;0.50;;;;;;;27.69;51.27;94545.78;4945517;28;20034;-76
2021/06/20 10:27:26;;;;;;;0.50;0.50;;;;;;;27.26;52.00;94539.66;4945793;29;20031;-77
2021/06/20 10:29:52;;;;;;;0.70;0.47;;;;;;;27.33;54.79;94545.41;4931483;29;20039;-76
2021/06/20 10:32:19;;;;;;;2.50;0.65;;;;;;;27.24;52.98;94541.81;4924858;28;20089;-76
2021/06/20 10:34:58;;;;;;;0.50;0.50;;;;;;;25.60;58.13;94537.34;4939498;28;20072;-84
2021/06/20 10:37:25;;;;;;;0.88;0.60;;;;;;;25.91;58.07;94539.84;4943404;29;20035;-77
2021/06/20 10:39:51;;;;;;;2.75;0.60;;;;;;;25.46;58.98;94535.56;4929692;29;20172;-76
2021/06/20 10:42:17;;;;;;;2.95;0.70;;;;;;;25.57;58.48;94532.59;4928484;29;20042;-74
2021/06/20 10:44:52;;;;;;;0.50;0.40;;;;;;;26.39;55.52;94516.91;4946134;29;20489;-75
2021/06/20 10:47:33;;;;;;;1.27;0.50;;;;;;;26.75;57.11;94526.09;4913378;29;20098;-78
2021/06/20 10:50:01;;;;;;;0.47;0.47;;;;;;;26.22;56.04;94519.97;4927636;29;20618;-77
2021/06/20 10:52:26;;;;;;;0.70;0.52;;;;;;;25.41;58.70;94524.97;4945402;29;20574;-86
2021/06/20 10:55:10;;;;;;;2.35;0.50;;;;;;;25.78;57.99;94524.53;4945897;28;20113;-76
2021/06/20 10:57:48;;;;;;;0.52;0.50;;;;;;;26.02;54.18;94525.41;4936812;28;20042;-75
2021/06/20 11:00:31;;;;;;;0.60;0.60;;;;;;;25.47;57.06;94524.66;4944387;29;20067;-75
2021/06/20 11:03:07;;;;;;;0.70;0.70;;;;;;;25.21;57.95;94525.84;4943591;29;20055;-76
2021/06/20 11:05:43;;;;;;;0.80;0.60;;;;;;;25.24;58.68;94517.34;4929021;29;20027;-75
2021/06/20 11:08:10;;;;;;;0.85;0.55;;;;;;;24.95;60.95;94513.75;4927894;29;20442;-76
2021/06/20 11:10:37;;;;;;;0.50;0.50;;;;;;;25.43;60.08;94515.66;4945576;29;20031;-76
2021/06/20 11:13:02;;;;;;;0.70;0.70;;;;;;;25.36;60.24;94512.53;4929505;29;20492;-75
2021/06/20 11:15:28;;;;;;;0.60;0.50;;;;;;;25.29;60.02;94520.00;4946246;29;20059;-75
2021/06/20 11:18:07;;;;;;;0.50;0.50;;;;;;;25.21;59.68;94515.25;4929098;29;20042;-72
2021/06/20 11:20:33;;;;;;;0.80;0.50;;;;;;;25.54;59.38;94517.22;4927374;29;20038;-75
2021/06/20 11:22:58;;;;;;;1.73;0.75;;;;;;;26.63;56.60;94504.44;4928103;29;20028;-71
2021/06/20 11:25:24;;;;;;;0.50;0.50;;;;;;;26.76;53.58;94502.97;4923209;28;20043;-74
2021/06/20 11:27:50;;;;;;;0.73;0.50;;;;;;;26.82;56.26;94492.03;4939049;28;20464;-75
2021/06/20 11:30:19;;;;;;;1.40;0.50;;;;;;;26.60;56.02;94499.69;4937660;28;20024;-75
2021/06/20 11:32:45;;;;;;;0.40;0.40;;;;;;;26.20;54.00;94492.88;4933524;28;20539;-74
2021/06/20 11:35:15;;;;;;;0.45;0.40;;;;;;;26.05;53.62;94488.47;4922105;29;20032;-73
2021/06/20 11:37:53;;;;;;;0.70;0.70;;;;;;;25.60;53.56;94491.44;4920117;29;20027;-75
2021/06/20 11:40:23;;;;;;;0.75;0.60;;;;;;;25.88;54.31;94485.41;4936551;28;20053;-78
2021/06/20 11:42:55;;;;;;;0.50;0.50;;;;;;;25.72;53.66;94478.63;4934830;28;20114;-74
2021/06/20 11:45:23;;;;;;;0.82;0.65;;;;;;;25.85;56.89;94474.59;4917261;28;20501;-72
2021/06/20 11:47:50;;;;;;;0.63;0.50;;;;;;;24.98;55.02;94478.78;4925377;29;20033;-73
2021/06/20 11:50:26;;;;;;;0.50;0.50;;;;;;;25.00;55.48;94476.63;4919245;28;20036;-77
2021/06/20 11:53:03;;;;;;;0.50;0.50;;;;;;;25.23;55.39;94473.34;4927024;29;20039;-79
2021/06/20 11:55:36;;;;;;;0.30;0.30;;;;;;;25.80;55.66;94469.28;4942417;28;20083;-80
2021/06/20 11:58:06;;;;;;;0.55;0.38;;;;;;;25.81;56.13;94458.41;4940970;29;20549;-75
2021/06/20 12:00:32;;;;;;;0.40;0.40;;;;;;;25.94;55.57;94459.63;4929762;29;20031;-88
2021/06/20 12:03:11;;;;;;;0.40;0.40;;;;;;;26.05;55.48;94456.59;4891844;29;20044;-79
2021/06/20 12:05:51;;;;;;;0.30;0.30;;;;;;;26.48;55.90;94454.09;4883527;29;20038;-80
2021/06/20 12:08:16;;;;;;;0.50;0.50;;;;;;;26.48;52.87;94451.44;4896675;29;20039;-79
2021/06/20 12:10:45;;;;;;;0.50;0.50;;;;;;;26.18;53.58;94449.88;4906824;29;20024;-75
2021/06/20 12:13:12;;;;;;;0.47;0.47;;;;;;;26.00;54.82;94445.25;4895339;29;20028;-78
2021/06/20 12:15:38;;;;;;;0.50;0.50;;;;;;;26.52;53.28;94437.31;4913552;29;20035;-77
2021/06/20 12:18:14;;;;;;;0.57;0.57;;;;;;;26.47;52.65;94439.22;4892390;29;20035;-86
2021/06/20 12:20:52;;;;;;;1.05;0.40;;;;;;;25.95;52.13;94430.13;4896289;29;20023;-85
2021/06/20 12:23:25;;;;;;;0.60;0.60;;;;;;;26.19;54.57;94430.22;4914109;29;20490;-87
2021/06/20 12:25:51;;;;;;;0.50;0.50;;;;;;;25.51;55.20;94430.22;4897056;29;20058;-78
2021/06/20 12:28:17;;;;;;;2.10;0.40;;;;;;;26.12;54.37;94425.22;4897171;29;20067;-77
2021/06/20 12:30:43;;;;;;;0.77;0.77;;;;;;;26.27;55.95;94428.81;4896049;29;20115;-72
2021/06/20 12:33:10;;;;;;;0.60;0.60;;;;;;;26.25;54.78;94430.97;4911955;29;20034;-82
2021/06/20 12:35:36;;;;;;;0.85;0.60;;;;;;;26.27;53.23;94426.94;4914090;29;20040;-83
2021/06/20 12:38:11;;;;;;;0.40;0.40;;;;;;;26.49;54.48;94429.13;4901587;29;20099;-83
2021/06/20 12:40:37;;;;;;;0.60;0.60;;;;;;;26.44;56.35;94429.97;4894970;29;20024;-81
2021/06/20 12:43:04;;;;;;;0.55;0.50;;;;;;;26.27;54.23;94436.78;4893005;29;20413;-80
2021/06/20 12:45:32;;;;;;;0.40;0.40;;;;;;;26.93;53.23;94427.03;4878287;29;20036;-79
2021/06/20 12:47:58;;;;;;;1.15;0.60;;;;;;;27.50;51.17;94430.53;4892734;29;20067;-79
2021/06/20 12:50:31;;;;;;;0.55;0.55;;;;;;;27.69;53.17;94428.66;4893154;29;20028;-79
2021/06/20 12:52:57;;;;;;;0.73;0.70;;;;;;;27.24;54.60;94422.09;4894208;29;20520;-78
2021/06/20 12:55:23;;;;;;;0.70;0.60;;;;;;;27.39;53.15;94419.22;4876812;29;20016;-76
2021/06/20 12:57:57;;;;;;;0.50;0.50;;;;;;;26.86;55.49;94417.81;4872955;29;20584;-85
2021/06/20 13:00:30;;;;;;;0.73;0.60;;;;;;;27.00;56.70;94413.41;4876810;29;20036;-75
2021/06/20 13:02:57;;;;;;;0.55;0.50;;;;;;;27.07;53.98;94413.81;4946757;28;20086;-76
2021/06/20 13:05:34;;;;;;;1.35;0.57;;;;;;;26.78;55.70;94415.78;4931446;29;20118;-76
2021/06/20 13:08:01;;;;;;;0.55;0.55;;;;;;;26.59;56.24;94418.38;4946719;29;20027;-82
2021/06/20 13:10:26;;;;;;;0.52;0.52;;;;;;;26.23;54.53;94411.88;4913307;28;20477;-78
2021/06/20 13:12:52;;;;;;;0.45;0.43;;;;;;;26.28;54.82;94415.25;4925700;29;20042;-89
2021/06/20 13:15:17;;;;;;;0.52;0.50;;;;;;;26.45;54.18;94417.47;4923732;29;20027;-77
2021/06/20 13:17:43;;;;;;;0.50;0.50;;;;;;;26.65;53.69;94406.63;4927246;29;20032;-73
2021/06/20 13:20:10;;;;;;;5.55;0.80;;;;;;;26.56;55.79;94410.97;4912324;29;20024;-85
2021/06/20 13:22:35;;;;;;;1.23;0.60;;;;;;;26.01;56.90;94406.97;4888137;29;20057;-76
2021/06/20 13:25:01;;;;;;;0.90;0.90;;;;;;;25.46;58.89;94411.66;4931202;29;20027;-76
2021/06/20 13:27:26;;;;;;;0.68;0.68;;;;;;;25.05;59.06;94412.97;4948401;28;20532;-86
2021/06/20 13:29:52;;;;;;;0.70;0.63;;;;;;;25.25;59.81;94404.13;4945229;29;20027;-79
2021/06/20 13:32:17;;;;;;;1.17;0.85;;;;;;;25.50;57.32;94417.22;4929565;28;20039;-81
2021/06/20 13:34:43;;;;;;;0.60;0.52;;;;;;;25.38;57.84;94419.41;4928060;29;20051;-73
2021/06/20 13:37:09;;;;;;;1.40;0.90;;;;;;;25.23;58.92;94415.00;4930346;29;20390;-77
2021/06/20 13:39:35;;;;;;;0.77;0.77;;;;;;;24.96;58.64;94406.66;4945302;29;20071;-75
2021/06/20 13:42:01;;;;;;;0.60;0.60;;;;;;;24.90;60.79;94407.75;4948639;28;20468;-79
2021/06/20 13:44:26;;;;;;;0.60;0.60;;;;;;;24.86;60.67;94412.81;4939866;28;20024;-76
2021/06/20 13:46:52;;;;;;;0.80;0.80;;;;;;;25.00;61.99;94405.88;4956487;28;20028;-75
2021/06/20 13:49:18;;;;;;;0.75;0.68;;;;;;;24.83;62.44;94409.91;4946524;29;20039;-74
2021/06/20 13:51:48;;;;;;;0.40;0.40;;;;;;;24.57;62.17;94412.66;4944858;29;20404;-78
2021/06/20 13:54:13;;;;;;;2.60;0.60;;;;;;;24.51;62.33;94413.72;4947376;28;20035;-80
2021/06/20 13:56:39;;;;;;;1.38;0.88;;;;;;;24.50;62.71;94414.78;4944908;29;20525;-79
2021/06/20 13:59:06;;;;;;;1.15;1.00;;;;;;;23.98;65.36;94417.81;4928424;29;20031;-84
2021/06/20 14:01:31;;;;;;;0.60;0.60;;;;;;;23.78;66.18;94417.03;4916775;29;20525;-74
2021/06/20 14:03:57;;;;;;;0.75;0.68;;;;;;;23.40;69.18;94447.44;4927165;29;20030;-78
2021/06/20 14:06:22;;;;;;;1.13;1.02;;;;;;;22.94;71.75;94463.13;4945641;29;20035;-70
2021/06/20 14:08:48;;;;;;;8.60;1.13;;;;;;;22.21;74.80;94464.06;4942495;28;20051;-74
2021/06/20 14:11:13;;;;;;;2.33;0.82;;;;;;;21.28;75.96;94461.97;4943756;29;20042;-76
2021/06/20 14:13:39;;;;;;;2.50;0.68;;;;;;;19.57;84.01;94458.59;4943898;28;20556;-75
2021/06/20 14:16:04;;;;;;;1.65;0.77;;;;;;;19.04;90.92;94461.59;4928258;29;20027;-75
2021/06/20 14:18:30;;;;;;;0.52;0.52;;;;;;;19.23;89.65;94462.22;4937885;29;20047;-75
2021/06/20 14:20:56;;;;;;;1.85;0.70;;;;;;;19.50;87.33;94455.34;4905546;29;20055;-73
2021/06/20 14:23:21;;;;;;;0.73;0.65;;;;;;;19.33;84.37;94455.28;4926897;29;20036;-72
2021/06/20 14:25:47;;;;;;;0.40;0.40;;;;;;;19.81;85.66;94452.16;4940430;28;20031;-73
2021/06/20 14:28:13;;;;;;;2.35;0.60;;;;;;;20.26;85.43;94453.88;4945911;29;20027;-72
2021/06/20 14:30:38;;;;;;;0.57;0.57;;;;;;;20.33;82.51;94451.88;4943824;29;20167;-80
2021/06/20 14:33:04;;;;;;;2.40;0.68;;;;;;;20.56;85.07;94462.16;4939309;29;20038;-76
2021/06/20 14:35:29;;;;;;;0.90;0.57;;;;;;;21.19;83.81;94458.19;4944805;28;20028;-71
2021/06/20 14:37:55;;;;;;;4.78;0.73;;;;;;;21.83;80.79;94451.88;4929333;29;20059;-71
2021/06/20 14:40:20;;;;;;;0.70;0.70;;;;;;;21.51;82.65;94443.22;4928540;29;20042;-73
2021/06/20 14:42:47;;;;;;;1.65;0.80;;;;;;;21.46;86.01;94443.94;4922793;29;20031;-70
2021/06/20 14:45:13;;;;;;;0.77;0.70;;;;;;;21.24;87.33;94447.69;4928302;29;20437;-70
2021/06/20 14:47:39;;;;;;;0.88;0.77;;;;;;;21.86;83.89;94455.88;4927725;29;20086;-69
2021/06/20 14:50:05;;;;;;;1.50;1.05;;;;;;;21.74;81.41;94453.41;4945396;29;20027;-69
2021/06/20 14:52:30;;;;;;;4.60;0.93;;;;;;;22.03;83.47;94453.91;4919445;29;20505;-69
2021/06/20 14:54:56;;;;;;;0.82;0.77;;;;;;;22.14;77.34;94437.13;4928990;29;20027;-71
2021/06/20 14:57:24;;;;;;;2.00;0.95;;;;;;;22.24;80.67;94431.91;4927885;29;20119;-71
2021/06/20 14:59:50;;;;;;;0.93;0.85;;;;;;;22.36;78.62;94429.84;4945572;29;20104;-69
2021/06/20 15:02:16;;;;;;;1.55;0.90;;;;;;;22.26;79.17;94427.16;4944162;29;20055;-74
2021/06/20 15:04:41;;;;;;;1.90;1.00;;;;;;;22.50;79.25;94432.81;4942394;29;20065;-71
2021/06/20 15:07:07;;;;;;;2.75;1.23;;;;;;;22.66;78.92;94433.72;4945509;29;20034;-72
2021/06/20 15:09:32;;;;;;;1.60;1.10;;;;;;;22.57;79.15;94425.47;4927968;29;20384;-73
2021/06/20 15:11:58;;;;;;;5.25;1.30;;;;;;;22.23;78.67;94427.66;4920467;29;20551;-70
2021/06/20 15:14:23;;;;;;;1.23;1.05;;;;;;;22.43;80.30;94430.41;4944163;29;20051;-74
2021/06/20 15:16:50;;;;;;;3.13;0.98;;;;;;;22.22;79.33;94433.22;4928313;29;20050;-73
2021/06/20 15:19:15;;;;;;;0.68;0.60;;;;;;;22.48;79.07;94429.63;4944556;29;20039;-73
2021/06/20 15:21:41;;;;;;;1.67;0.80;;;;;;;22.60;79.74;94432.88;4927774;29;20031;-73
2021/06/20 15:24:13;;;;;;;0.85;0.65;;;;;;;22.70;80.64;94429.50;4910052;29;20083;-73
2021/06/20 15:26:39;;;;;;;1.02;0.90;;;;;;;22.70;79.07;94427.63;4927221;29;20123;-73
2021/06/20 15:29:04;;;;;;;0.80;0.80;;;;;;;22.74;79.03;94427.91;4945883;29;20028;-74
2021/06/20 15:31:30;;;;;;;1.38;0.90;;;;;;;22.62;80.02;94427.31;4944659;29;20386;-73
2021/06/20 15:33:55;;;;;;;0.77;0.70;;;;;;;22.24;74.03;94423.19;4946302;29;20918;-73
2021/06/20 15:36:25;;;;;;;0.60;0.60;;;;;;;22.10;74.46;94433.38;4944088;29;20841;-75
2021/06/20 15:38:50;;;;;;;0.70;0.60;;;;;;;22.04;74.16;94435.19;4929200;29;20067;-74
2021/06/20 15:41:16;;;;;;;1.10;0.75;;;;;;;22.09;76.05;94431.78;4929841;29;20062;-70
2021/06/20 15:43:44;;;;;;;1.30;0.60;;;;;;;21.97;76.55;94426.72;4928544;29;20032;-74
2021/06/20 15:46:10;;;;;;;0.75;0.73;;;;;;;22.03;81.51;94438.09;4929810;29;20035;-74
2021/06/20 15:48:35;;;;;;;1.17;0.80;;;;;;;22.09;80.36;94431.78;4944529;29;20028;-74
2021/06/20 15:51:05;;;;;;;0.82;0.80;;;;;;;22.41;79.20;94437.78;4930858;29;20031;-74
2021/06/20 15:53:30;;;;;;;0.90;0.65;;;;;;;22.20;79.64;94433.44;4928491;29;20079;-74
2021/06/20 15:55:56;;;;;;;0.90;0.70;;;;;;;22.22;80.22;94428.69;4952383;28;20023;-75
2021/06/20 15:58:21;;;;;;;0.88;0.85;;;;;;;22.02;81.01;94425.97;4931407;29;20035;-75
2021/06/20 16:00:47;;;;;;;2.40;0.90;;;;;;;22.16;80.93;94424.44;4947696;29;20035;-75
2021/06/20 16:03:12;;;;;;;0.68;0.68;;;;;;;22.14;80.10;94423.91;4949119;28;20051;-76
2021/06/20 16:05:38;;;;;;;1.02;1.02;;;;;;;22.12;80.73;94423.38;4931372;29;20039;-77
2021/06/20 16:08:04;;;;;;;1.02;0.90;;;;;;;22.09;79.49;94426.50;4931621;29;20027;-76
2021/06/20 16:10:29;;;;;;;1.85;0.70;;;;;;;22.03;78.80;94432.81;4915984;29;20039;-74
2021/06/20 16:12:55;;;;;;;2.30;1.00;;;;;;;22.01;79.79;94437.56;4932340;29;20039;-74
2021/06/20 16:15:20;;;;;;;0.93;0.75;;;;;;;22.28;78.48;94443.53;4915646;29;20042;-74
2021/06/20 16:17:46;;;;;;;0.70;0.70;;;;;;;22.52;76.98;94441.28;4931800;29;20079;-74
2021/06/20 16:20:12;;;;;;;1.33;1.20;;;;;;;22.47;76.00;94430.69;4932904;29;20023;-75
2021/06/20 16:22:38;;;;;;;1.38;1.08;;;;;;;22.43;76.95;94438.34;4930726;29;20038;-75
2021/06/20 16:25:05;;;;;;;0.65;0.65;;;;;;;22.32;77.64;94441.97;4886497;29;20027;-75
2021/06/20 16:27:30;;;;;;;1.52;0.95;;;;;;;22.18;77.89;94435.56;4914857;29;20653;-75
2021/06/20 16:29:56;;;;;;;0.82;0.82;;;;;;;22.27;80.14;94441.94;4899889;29;20126;-75
2021/06/20 16:32:21;;;;;;;0.70;0.65;;;;;;;22.11;79.35;94432.34;4931192;29;20086;-75
2021/06/20 16:34:48;;;;;;;0.80;0.70;;;;;;;22.06;79.46;94441.00;4900899;29;20105;-75